sensor_id;sensor_type;location;lat;lon;timestamp;pressure;altitude;pressure_sealevel;temperature;humidity
62952;BME280;52163;52.212;-1.002;2023-04-20T00:02:19;101508.94;;;4.83;80.26
62952;BME280;52163;52.212;-1.002;2023-04-20T00:04:46;101505.61;;;4.83;80.77
62952;BME280;52163;52.212;-1.002;2023-04-20T00:07:11;101502.65;;;4.82;80.94
62952;BME280;52163;52.212;-1.002;2023-04-20T00:09:37;101497.29;;;4.79;81.17
62952;BME280;52163;52.212;-1.002;2023-04-20T00:12:02;101492.21;;;4.79;81.42
62952;BME280;52163;52.212;-1.002;2023-04-20T00:14:28;101493.95;;;4.79;81.51
62952;BME280;52163;52.212;-1.002;2023-04-20T00:16:53;101491.55;;;4.77;81.75
62952;BME280;52163;52.212;-1.002;2023-04-20T00:19:19;101491.45;;;4.74;82.06
62952;BME280;52163;52.212;-1.002;2023-04-20T00:21:47;101485.73;;;4.70;82.32
62952;BME280;52163;52.212;-1.002;2023-04-20T00:24:15;101484.24;;;4.66;82.61
62952;BME280;52163;52.212;-1.002;2023-04-20T00:26:40;101479.77;;;4.62;82.86
62952;BME280;52163;52.212;-1.002;2023-04-20T00:29:05;101480.20;;;4.59;82.90
62952;BME280;52163;52.212;-1.002;2023-04-20T00:31:31;101474.63;;;4.56;83.50
62952;BME280;52163;52.212;-1.002;2023-04-20T00:33:57;101474.52;;;4.53;83.76
62952;BME280;52163;52.212;-1.002;2023-04-20T00:36:22;101468.39;;;4.53;84.00
62952;BME280;52163;52.212;-1.002;2023-04-20T00:38:47;101469.61;;;4.54;84.44
62952;BME280;52163;52.212;-1.002;2023-04-20T00:41:13;101469.59;;;4.55;85.11
62952;BME280;52163;52.212;-1.002;2023-04-20T00:43:49;101468.31;;;4.56;85.05
62952;BME280;52163;52.212;-1.002;2023-04-20T00:46:15;101470.74;;;4.59;85.38
62952;BME280;52163;52.212;-1.002;2023-04-20T00:48:41;101465.33;;;4.58;85.37
62952;BME280;52163;52.212;-1.002;2023-04-20T00:51:07;101462.21;;;4.55;85.52
62952;BME280;52163;52.212;-1.002;2023-04-20T00:53:33;101464.75;;;4.51;85.70
62952;BME280;52163;52.212;-1.002;2023-04-20T00:55:58;101456.80;;;4.47;85.90
62952;BME280;52163;52.212;-1.002;2023-04-20T00:58:24;101456.16;;;4.43;86.14
62952;BME280;52163;52.212;-1.002;2023-04-20T01:00:49;101452.20;;;4.41;86.53
62952;BME280;52163;52.212;-1.002;2023-04-20T01:03:15;101451.31;;;4.41;86.78
62952;BME280;52163;52.212;-1.002;2023-04-20T01:05:41;101445.70;;;4.42;87.44
62952;BME280;52163;52.212;-1.002;2023-04-20T01:08:06;101444.09;;;4.43;87.73
62952;BME280;52163;52.212;-1.002;2023-04-20T01:10:32;101441.26;;;4.45;87.63
62952;BME280;52163;52.212;-1.002;2023-04-20T01:12:57;101438.08;;;4.47;87.92
62952;BME280;52163;52.212;-1.002;2023-04-20T01:15:23;101435.90;;;4.50;87.99
62952;BME280;52163;52.212;-1.002;2023-04-20T01:17:48;101427.67;;;4.50;88.02
62952;BME280;52163;52.212;-1.002;2023-04-20T01:20:14;101428.68;;;4.52;88.05
62952;BME280;52163;52.212;-1.002;2023-04-20T01:22:44;101423.13;;;4.50;88.21
62952;BME280;52163;52.212;-1.002;2023-04-20T01:25:11;101421.77;;;4.48;88.31
62952;BME280;52163;52.212;-1.002;2023-04-20T01:27:36;101418.51;;;4.45;88.44
62952;BME280;52163;52.212;-1.002;2023-04-20T01:30:01;101418.38;;;4.43;88.55
62952;BME280;52163;52.212;-1.002;2023-04-20T01:32:27;101412.80;;;4.42;88.69
62952;BME280;52163;52.212;-1.002;2023-04-20T01:34:53;101412.81;;;4.42;89.17
62952;BME280;52163;52.212;-1.002;2023-04-20T01:37:18;101412.45;;;4.42;89.23
62952;BME280;52163;52.212;-1.002;2023-04-20T01:39:43;101410.45;;;4.46;89.66
62952;BME280;52163;52.212;-1.002;2023-04-20T01:42:10;101411.98;;;4.47;89.71
62952;BME280;52163;52.212;-1.002;2023-04-20T01:44:35;101412.31;;;4.48;89.76
62952;BME280;52163;52.212;-1.002;2023-04-20T01:47:00;101410.33;;;4.51;89.89
62952;BME280;52163;52.212;-1.002;2023-04-20T01:49:26;101406.64;;;4.52;89.97
62952;BME280;52163;52.212;-1.002;2023-04-20T01:51:51;101405.41;;;4.53;90.12
62952;BME280;52163;52.212;-1.002;2023-04-20T01:54:16;101404.15;;;4.54;90.23
62952;BME280;52163;52.212;-1.002;2023-04-20T01:56:42;101405.16;;;4.56;90.13
62952;BME280;52163;52.212;-1.002;2023-04-20T01:59:07;101399.36;;;4.57;90.14
62952;BME280;52163;52.212;-1.002;2023-04-20T02:01:33;101401.23;;;4.60;90.05
62952;BME280;52163;52.212;-1.002;2023-04-20T02:03:58;101399.27;;;4.62;90.33
62952;BME280;52163;52.212;-1.002;2023-04-20T02:06:24;101397.78;;;4.66;90.30
62952;BME280;52163;52.212;-1.002;2023-04-20T02:08:49;101398.95;;;4.69;90.29
62952;BME280;52163;52.212;-1.002;2023-04-20T02:11:14;101396.13;;;4.70;90.21
62952;BME280;52163;52.212;-1.002;2023-04-20T02:13:40;101399.27;;;4.70;90.26
62952;BME280;52163;52.212;-1.002;2023-04-20T02:16:06;101397.71;;;4.69;90.29
62952;BME280;52163;52.212;-1.002;2023-04-20T02:18:31;101399.30;;;4.69;90.21
62952;BME280;52163;52.212;-1.002;2023-04-20T02:20:58;101395.48;;;4.67;90.05
62952;BME280;52163;52.212;-1.002;2023-04-20T02:23:23;101395.14;;;4.67;90.02
62952;BME280;52163;52.212;-1.002;2023-04-20T02:25:49;101397.56;;;4.68;89.97
62952;BME280;52163;52.212;-1.002;2023-04-20T02:28:14;101395.81;;;4.69;89.84
62952;BME280;52163;52.212;-1.002;2023-04-20T02:30:39;101394.38;;;4.70;89.89
62952;BME280;52163;52.212;-1.002;2023-04-20T02:33:05;101388.23;;;4.71;90.01
62952;BME280;52163;52.212;-1.002;2023-04-20T02:35:31;101388.23;;;4.71;89.96
62952;BME280;52163;52.212;-1.002;2023-04-20T02:37:56;101387.34;;;4.71;90.19
62952;BME280;52163;52.212;-1.002;2023-04-20T02:40:21;101386.30;;;4.72;89.69
62952;BME280;52163;52.212;-1.002;2023-04-20T02:42:47;101390.67;;;4.71;89.77
62952;BME280;52163;52.212;-1.002;2023-04-20T02:45:12;101390.84;;;4.72;89.83
62952;BME280;52163;52.212;-1.002;2023-04-20T02:47:38;101392.02;;;4.73;89.63
62952;BME280;52163;52.212;-1.002;2023-04-20T02:50:05;101389.90;;;4.75;89.80
62952;BME280;52163;52.212;-1.002;2023-04-20T02:52:30;101389.71;;;4.75;89.91
62952;BME280;52163;52.212;-1.002;2023-04-20T02:54:55;101385.69;;;4.75;89.69
62952;BME280;52163;52.212;-1.002;2023-04-20T02:57:21;101390.27;;;4.73;89.64
62952;BME280;52163;52.212;-1.002;2023-04-20T02:59:47;101386.81;;;4.71;89.68
62952;BME280;52163;52.212;-1.002;2023-04-20T03:02:12;101382.02;;;4.67;89.54
62952;BME280;52163;52.212;-1.002;2023-04-20T03:04:37;101381.23;;;4.62;89.58
62952;BME280;52163;52.212;-1.002;2023-04-20T03:07:03;101379.70;;;4.60;89.69
62952;BME280;52163;52.212;-1.002;2023-04-20T03:09:29;101380.58;;;4.60;90.08
62952;BME280;52163;52.212;-1.002;2023-04-20T03:11:55;101381.61;;;4.61;90.06
62952;BME280;52163;52.212;-1.002;2023-04-20T03:14:22;101380.38;;;4.61;89.99
62952;BME280;52163;52.212;-1.002;2023-04-20T03:16:47;101381.77;;;4.62;90.26
62952;BME280;52163;52.212;-1.002;2023-04-20T03:19:12;101381.24;;;4.62;90.09
62952;BME280;52163;52.212;-1.002;2023-04-20T03:21:38;101378.64;;;4.61;90.19
62952;BME280;52163;52.212;-1.002;2023-04-20T03:24:04;101381.66;;;4.59;90.06
62952;BME280;52163;52.212;-1.002;2023-04-20T03:26:31;101382.39;;;4.57;90.10
62952;BME280;52163;52.212;-1.002;2023-04-20T03:28:56;101382.09;;;4.54;89.97
62952;BME280;52163;52.212;-1.002;2023-04-20T03:31:23;101382.12;;;4.53;90.30
62952;BME280;52163;52.212;-1.002;2023-04-20T03:33:48;101381.61;;;4.53;90.30
62952;BME280;52163;52.212;-1.002;2023-04-20T03:36:13;101380.71;;;4.53;90.56
62952;BME280;52163;52.212;-1.002;2023-04-20T03:38:39;101377.48;;;4.57;90.69
62952;BME280;52163;52.212;-1.002;2023-04-20T03:41:06;101378.17;;;4.58;90.78
62952;BME280;52163;52.212;-1.002;2023-04-20T03:43:32;101380.60;;;4.59;90.67
62952;BME280;52163;52.212;-1.002;2023-04-20T03:45:58;101380.09;;;4.59;90.77
62952;BME280;52163;52.212;-1.002;2023-04-20T03:48:23;101383.09;;;4.57;90.79
62952;BME280;52163;52.212;-1.002;2023-04-20T03:50:49;101382.95;;;4.56;90.81
62952;BME280;52163;52.212;-1.002;2023-04-20T03:53:14;101384.73;;;4.54;90.86
62952;BME280;52163;52.212;-1.002;2023-04-20T03:55:40;101386.85;;;4.53;90.99
62952;BME280;52163;52.212;-1.002;2023-04-20T03:58:05;101387.90;;;4.53;90.96
62952;BME280;52163;52.212;-1.002;2023-04-20T04:00:31;101390.53;;;4.52;91.09
62952;BME280;52163;52.212;-1.002;2023-04-20T04:02:57;101388.94;;;4.53;91.40
62952;BME280;52163;52.212;-1.002;2023-04-20T04:05:24;101390.84;;;4.54;91.28
62952;BME280;52163;52.212;-1.002;2023-04-20T04:07:50;101386.45;;;4.55;91.53
62952;BME280;52163;52.212;-1.002;2023-04-20T04:10:16;101385.06;;;4.55;91.43
62952;BME280;52163;52.212;-1.002;2023-04-20T04:12:43;101384.02;;;4.54;91.68
62952;BME280;52163;52.212;-1.002;2023-04-20T04:15:10;101386.52;;;4.53;91.50
62952;BME280;52163;52.212;-1.002;2023-04-20T04:17:36;101384.79;;;4.52;91.57
62952;BME280;52163;52.212;-1.002;2023-04-20T04:20:02;101384.61;;;4.51;91.52
62952;BME280;52163;52.212;-1.002;2023-04-20T04:22:28;101386.52;;;4.51;91.79
62952;BME280;52163;52.212;-1.002;2023-04-20T04:24:53;101385.63;;;4.53;91.76
62952;BME280;52163;52.212;-1.002;2023-04-20T04:27:19;101386.86;;;4.52;91.69
62952;BME280;52163;52.212;-1.002;2023-04-20T04:29:46;101389.49;;;4.52;91.97
62952;BME280;52163;52.212;-1.002;2023-04-20T04:32:14;101387.91;;;4.52;91.94
62952;BME280;52163;52.212;-1.002;2023-04-20T04:34:40;101391.43;;;4.51;91.84
62952;BME280;52163;52.212;-1.002;2023-04-20T04:37:09;101392.04;;;4.48;91.80
62952;BME280;52163;52.212;-1.002;2023-04-20T04:39:35;101393.66;;;4.45;91.59
62952;BME280;52163;52.212;-1.002;2023-04-20T04:42:00;101395.98;;;4.43;91.69
62952;BME280;52163;52.212;-1.002;2023-04-20T04:44:26;101397.37;;;4.44;91.59
62952;BME280;52163;52.212;-1.002;2023-04-20T04:46:53;101397.71;;;4.44;91.83
62952;BME280;52163;52.212;-1.002;2023-04-20T04:49:18;101398.39;;;4.45;91.74
62952;BME280;52163;52.212;-1.002;2023-04-20T04:51:44;101394.52;;;4.46;91.75
62952;BME280;52163;52.212;-1.002;2023-04-20T04:54:11;101397.69;;;4.45;91.78
62952;BME280;52163;52.212;-1.002;2023-04-20T04:56:37;101397.00;;;4.45;91.54
62952;BME280;52163;52.212;-1.002;2023-04-20T04:59:02;101398.41;;;4.44;91.40
62952;BME280;52163;52.212;-1.002;2023-04-20T05:01:27;101398.46;;;4.42;91.25
62952;BME280;52163;52.212;-1.002;2023-04-20T05:03:53;101401.48;;;4.40;91.15
62952;BME280;52163;52.212;-1.002;2023-04-20T05:06:18;101405.48;;;4.41;91.43
62952;BME280;52163;52.212;-1.002;2023-04-20T05:08:45;101407.22;;;4.41;91.08
62952;BME280;52163;52.212;-1.002;2023-04-20T05:11:10;101406.14;;;4.43;91.09
62952;BME280;52163;52.212;-1.002;2023-04-20T05:13:38;101409.05;;;4.46;90.96
62952;BME280;52163;52.212;-1.002;2023-04-20T05:16:04;101405.65;;;4.49;91.10
62952;BME280;52163;52.212;-1.002;2023-04-20T05:18:29;101413.14;;;4.51;90.89
62952;BME280;52163;52.212;-1.002;2023-04-20T05:20:55;101414.03;;;4.50;90.50
62952;BME280;52163;52.212;-1.002;2023-04-20T05:23:20;101417.94;;;4.48;90.59
62952;BME280;52163;52.212;-1.002;2023-04-20T05:25:46;101415.84;;;4.47;90.78
62952;BME280;52163;52.212;-1.002;2023-04-20T05:28:11;101416.70;;;4.48;90.81
62952;BME280;52163;52.212;-1.002;2023-04-20T05:30:37;101418.39;;;4.51;90.56
62952;BME280;52163;52.212;-1.002;2023-04-20T05:33:02;101423.02;;;4.55;91.10
62952;BME280;52163;52.212;-1.002;2023-04-20T05:35:27;101417.85;;;4.61;91.14
62952;BME280;52163;52.212;-1.002;2023-04-20T05:37:53;101417.04;;;4.66;90.93
62952;BME280;52163;52.212;-1.002;2023-04-20T05:40:18;101418.37;;;4.69;90.71
62952;BME280;52163;52.212;-1.002;2023-04-20T05:42:44;101416.38;;;4.72;90.62
62952;BME280;52163;52.212;-1.002;2023-04-20T05:45:10;101419.67;;;4.74;90.53
62952;BME280;52163;52.212;-1.002;2023-04-20T05:47:35;101421.23;;;4.74;90.45
62952;BME280;52163;52.212;-1.002;2023-04-20T05:50:01;101425.02;;;4.77;90.48
62952;BME280;52163;52.212;-1.002;2023-04-20T05:52:26;101428.12;;;4.79;90.41
62952;BME280;52163;52.212;-1.002;2023-04-20T05:54:52;101432.77;;;4.84;90.53
62952;BME280;52163;52.212;-1.002;2023-04-20T05:57:17;101436.48;;;4.89;90.52
62952;BME280;52163;52.212;-1.002;2023-04-20T05:59:43;101438.79;;;4.96;90.63
62952;BME280;52163;52.212;-1.002;2023-04-20T06:02:09;101438.45;;;5.03;90.12
62952;BME280;52163;52.212;-1.002;2023-04-20T06:04:34;101437.84;;;5.08;90.20
62952;BME280;52163;52.212;-1.002;2023-04-20T06:07:00;101436.30;;;5.14;90.09
62952;BME280;52163;52.212;-1.002;2023-04-20T06:09:26;101438.64;;;5.18;90.08
62952;BME280;52163;52.212;-1.002;2023-04-20T06:11:51;101440.27;;;5.24;89.91
62952;BME280;52163;52.212;-1.002;2023-04-20T06:14:17;101438.92;;;5.30;89.73
62952;BME280;52163;52.212;-1.002;2023-04-20T06:16:42;101440.16;;;5.36;89.81
62952;BME280;52163;52.212;-1.002;2023-04-20T06:19:07;101440.14;;;5.45;89.82
62952;BME280;52163;52.212;-1.002;2023-04-20T06:21:34;101438.99;;;5.56;89.72
62952;BME280;52163;52.212;-1.002;2023-04-20T06:23:59;101442.59;;;5.67;89.42
62952;BME280;52163;52.212;-1.002;2023-04-20T06:26:25;101436.20;;;5.76;89.24
62952;BME280;52163;52.212;-1.002;2023-04-20T06:28:50;101436.52;;;5.84;89.01
62952;BME280;52163;52.212;-1.002;2023-04-20T06:31:18;101435.77;;;5.93;88.66
62952;BME280;52163;52.212;-1.002;2023-04-20T06:33:43;101433.67;;;6.01;88.34
62952;BME280;52163;52.212;-1.002;2023-04-20T06:36:09;101432.24;;;6.09;88.08
62952;BME280;52163;52.212;-1.002;2023-04-20T06:38:34;101427.95;;;6.18;87.95
62952;BME280;52163;52.212;-1.002;2023-04-20T06:41:00;101426.48;;;6.27;87.61
62952;BME280;52163;52.212;-1.002;2023-04-20T06:43:29;101429.18;;;6.37;87.22
62952;BME280;52163;52.212;-1.002;2023-04-20T06:45:55;101422.61;;;6.46;86.98
62952;BME280;52163;52.212;-1.002;2023-04-20T06:48:21;101422.73;;;6.54;86.81
62952;BME280;52163;52.212;-1.002;2023-04-20T06:50:48;101419.70;;;6.62;86.42
62952;BME280;52163;52.212;-1.002;2023-04-20T06:53:14;101423.36;;;6.69;86.01
62952;BME280;52163;52.212;-1.002;2023-04-20T06:55:39;101421.20;;;6.77;85.43
62952;BME280;52163;52.212;-1.002;2023-04-20T06:58:05;101422.23;;;6.84;85.11
62952;BME280;52163;52.212;-1.002;2023-04-20T07:00:30;101423.21;;;6.92;84.67
62952;BME280;52163;52.212;-1.002;2023-04-20T07:02:56;101417.53;;;7.00;84.07
62952;BME280;52163;52.212;-1.002;2023-04-20T07:05:22;101413.24;;;7.07;83.60
62952;BME280;52163;52.212;-1.002;2023-04-20T07:07:47;101415.57;;;7.18;83.16
62952;BME280;52163;52.212;-1.002;2023-04-20T07:10:13;101416.91;;;7.25;82.33
62952;BME280;52163;52.212;-1.002;2023-04-20T07:12:40;101418.61;;;7.33;82.16
62952;BME280;52163;52.212;-1.002;2023-04-20T07:15:07;101418.57;;;7.39;81.83
62952;BME280;52163;52.212;-1.002;2023-04-20T07:17:33;101416.06;;;7.46;81.35
62952;BME280;52163;52.212;-1.002;2023-04-20T07:19:59;101417.06;;;7.53;81.30
62952;BME280;52163;52.212;-1.002;2023-04-20T07:22:32;101421.86;;;7.63;80.79
62952;BME280;52163;52.212;-1.002;2023-04-20T07:24:59;101418.02;;;7.71;80.47
62952;BME280;52163;52.212;-1.002;2023-04-20T07:27:26;101418.96;;;7.80;79.89
62952;BME280;52163;52.212;-1.002;2023-04-20T07:29:53;101418.17;;;7.88;79.53
62952;BME280;52163;52.212;-1.002;2023-04-20T07:32:19;101414.08;;;7.95;79.22
62952;BME280;52163;52.212;-1.002;2023-04-20T07:34:44;101414.20;;;8.02;78.83
62952;BME280;52163;52.212;-1.002;2023-04-20T07:37:10;101413.86;;;8.06;78.26
62952;BME280;52163;52.212;-1.002;2023-04-20T07:39:36;101411.89;;;8.12;78.09
62952;BME280;52163;52.212;-1.002;2023-04-20T07:42:02;101414.90;;;8.16;77.73
62952;BME280;52163;52.212;-1.002;2023-04-20T07:44:28;101411.20;;;8.22;77.03
62952;BME280;52163;52.212;-1.002;2023-04-20T07:46:54;101404.59;;;8.29;76.93
62952;BME280;52163;52.212;-1.002;2023-04-20T07:49:22;101408.17;;;8.37;76.66
62952;BME280;52163;52.212;-1.002;2023-04-20T07:51:47;101405.21;;;8.46;76.09
62952;BME280;52163;52.212;-1.002;2023-04-20T07:54:13;101403.50;;;8.55;75.33
62952;BME280;52163;52.212;-1.002;2023-04-20T07:56:38;101402.30;;;8.63;74.90
62952;BME280;52163;52.212;-1.002;2023-04-20T07:59:03;101396.77;;;8.70;73.97
62952;BME280;52163;52.212;-1.002;2023-04-20T08:01:29;101394.21;;;8.77;73.03
62952;BME280;52163;52.212;-1.002;2023-04-20T08:03:55;101390.11;;;8.83;72.19
62952;BME280;52163;52.212;-1.002;2023-04-20T08:06:21;101388.17;;;8.87;70.98
62952;BME280;52163;52.212;-1.002;2023-04-20T08:08:46;101386.58;;;8.92;70.70
62952;BME280;52163;52.212;-1.002;2023-04-20T08:11:12;101385.77;;;9.00;70.44
62952;BME280;52163;52.212;-1.002;2023-04-20T08:13:37;101379.13;;;9.07;70.16
62952;BME280;52163;52.212;-1.002;2023-04-20T08:16:03;101386.19;;;9.15;69.58
62952;BME280;52163;52.212;-1.002;2023-04-20T08:18:28;101386.82;;;9.22;68.95
62952;BME280;52163;52.212;-1.002;2023-04-20T08:20:57;101390.23;;;9.29;68.51
62952;BME280;52163;52.212;-1.002;2023-04-20T08:23:22;101390.69;;;9.35;67.77
62952;BME280;52163;52.212;-1.002;2023-04-20T08:25:54;101387.47;;;9.41;67.35
62952;BME280;52163;52.212;-1.002;2023-04-20T08:28:21;101387.83;;;9.45;66.92
62952;BME280;52163;52.212;-1.002;2023-04-20T08:30:46;101386.74;;;9.50;66.35
62952;BME280;52163;52.212;-1.002;2023-04-20T08:33:12;101381.16;;;9.52;66.02
62952;BME280;52163;52.212;-1.002;2023-04-20T08:35:37;101382.30;;;9.58;65.18
62952;BME280;52163;52.212;-1.002;2023-04-20T08:38:03;101380.75;;;9.62;64.59
62952;BME280;52163;52.212;-1.002;2023-04-20T08:40:30;101381.27;;;9.67;64.83
62952;BME280;52163;52.212;-1.002;2023-04-20T08:42:56;101374.23;;;9.70;64.07
62952;BME280;52163;52.212;-1.002;2023-04-20T08:45:22;101377.27;;;9.74;63.91
62952;BME280;52163;52.212;-1.002;2023-04-20T08:47:48;101374.64;;;9.77;62.98
62952;BME280;52163;52.212;-1.002;2023-04-20T08:50:15;101376.34;;;9.83;62.49
62952;BME280;52163;52.212;-1.002;2023-04-20T08:52:40;101372.35;;;9.89;61.78
62952;BME280;52163;52.212;-1.002;2023-04-20T08:55:06;101371.19;;;9.96;61.66
62952;BME280;52163;52.212;-1.002;2023-04-20T08:57:32;101377.95;;;10.03;61.50
62952;BME280;52163;52.212;-1.002;2023-04-20T08:59:57;101372.73;;;10.09;60.42
62952;BME280;52163;52.212;-1.002;2023-04-20T09:02:23;101368.64;;;10.14;59.24
62952;BME280;52163;52.212;-1.002;2023-04-20T09:04:59;101364.83;;;10.20;58.97
62952;BME280;52163;52.212;-1.002;2023-04-20T09:07:25;101370.94;;;10.25;58.13
62952;BME280;52163;52.212;-1.002;2023-04-20T09:09:58;101368.79;;;10.30;57.34
62952;BME280;52163;52.212;-1.002;2023-04-20T09:12:24;101363.92;;;10.36;57.54
62952;BME280;52163;52.212;-1.002;2023-04-20T09:14:50;101362.08;;;10.42;57.13
62952;BME280;52163;52.212;-1.002;2023-04-20T09:17:17;101358.92;;;10.50;56.84
62952;BME280;52163;52.212;-1.002;2023-04-20T09:19:44;101361.23;;;10.57;55.92
62952;BME280;52163;52.212;-1.002;2023-04-20T09:22:10;101360.12;;;10.62;55.19
62952;BME280;52163;52.212;-1.002;2023-04-20T09:24:37;101357.14;;;10.65;54.05
62952;BME280;52163;52.212;-1.002;2023-04-20T09:27:17;101351.94;;;10.71;54.24
62952;BME280;52163;52.212;-1.002;2023-04-20T09:29:45;101348.61;;;10.81;54.54
62952;BME280;52163;52.212;-1.002;2023-04-20T09:32:21;101349.79;;;10.90;53.51
62952;BME280;52163;52.212;-1.002;2023-04-20T09:34:47;101347.41;;;10.95;52.80
62952;BME280;52163;52.212;-1.002;2023-04-20T09:37:16;101344.25;;;10.98;52.61
62952;BME280;52163;52.212;-1.002;2023-04-20T09:39:43;101343.56;;;11.01;51.93
62952;BME280;52163;52.212;-1.002;2023-04-20T09:42:11;101337.60;;;11.04;51.51
62952;BME280;52163;52.212;-1.002;2023-04-20T09:44:38;101333.63;;;11.09;52.09
62952;BME280;52163;52.212;-1.002;2023-04-20T09:47:04;101329.92;;;11.16;51.48
62952;BME280;52163;52.212;-1.002;2023-04-20T09:49:31;101328.73;;;11.23;51.65
62952;BME280;52163;52.212;-1.002;2023-04-20T09:51:57;101331.50;;;11.31;51.83
62952;BME280;52163;52.212;-1.002;2023-04-20T09:54:22;101326.17;;;11.35;51.21
62952;BME280;52163;52.212;-1.002;2023-04-20T09:56:48;101325.86;;;11.38;51.19
62952;BME280;52163;52.212;-1.002;2023-04-20T09:59:16;101319.00;;;11.44;51.29
62952;BME280;52163;52.212;-1.002;2023-04-20T10:01:43;101320.42;;;11.51;51.22
62952;BME280;52163;52.212;-1.002;2023-04-20T10:04:09;101315.98;;;11.55;50.85
62952;BME280;52163;52.212;-1.002;2023-04-20T10:06:36;101311.20;;;11.58;51.02
62952;BME280;52163;52.212;-1.002;2023-04-20T10:09:06;101308.80;;;11.60;51.07
62952;BME280;52163;52.212;-1.002;2023-04-20T10:11:36;101316.17;;;11.61;50.54
62952;BME280;52163;52.212;-1.002;2023-04-20T10:14:23;101308.48;;;11.63;50.07
62952;BME280;52163;52.212;-1.002;2023-04-20T10:17:28;101306.08;;;11.65;49.59
62952;BME280;52163;52.212;-1.002;2023-04-20T10:19:53;101296.66;;;11.69;49.34
62952;BME280;52163;52.212;-1.002;2023-04-20T10:22:30;101291.15;;;11.73;49.37
62952;BME280;52163;52.212;-1.002;2023-04-20T10:25:13;101281.52;;;11.77;48.93
62952;BME280;52163;52.212;-1.002;2023-04-20T10:27:54;101276.94;;;11.84;49.31
62952;BME280;52163;52.212;-1.002;2023-04-20T10:30:22;101278.13;;;11.92;49.96
62952;BME280;52163;52.212;-1.002;2023-04-20T10:32:47;101274.48;;;12.01;50.47
62952;BME280;52163;52.212;-1.002;2023-04-20T10:35:13;101270.92;;;12.05;49.66
62952;BME280;52163;52.212;-1.002;2023-04-20T10:37:50;101273.22;;;12.04;49.27
62952;BME280;52163;52.212;-1.002;2023-04-20T10:40:23;101265.66;;;12.07;48.26
62952;BME280;52163;52.212;-1.002;2023-04-20T10:42:50;101259.60;;;12.11;48.05
62952;BME280;52163;52.212;-1.002;2023-04-20T10:45:15;101250.63;;;12.16;48.25
62952;BME280;52163;52.212;-1.002;2023-04-20T10:47:40;101247.59;;;12.23;47.97
62952;BME280;52163;52.212;-1.002;2023-04-20T10:50:11;101246.02;;;12.29;48.35
62952;BME280;52163;52.212;-1.002;2023-04-20T10:52:39;101242.18;;;12.38;47.99
62952;BME280;52163;52.212;-1.002;2023-04-20T10:55:06;101248.00;;;12.41;47.21
62952;BME280;52163;52.212;-1.002;2023-04-20T10:57:43;101242.86;;;12.44;46.21
62952;BME280;52163;52.212;-1.002;2023-04-20T11:00:17;101236.86;;;12.44;45.45
62952;BME280;52163;52.212;-1.002;2023-04-20T11:02:48;101232.05;;;12.41;45.33
62952;BME280;52163;52.212;-1.002;2023-04-20T11:05:15;101230.89;;;12.43;45.07
62952;BME280;52163;52.212;-1.002;2023-04-20T11:07:50;101224.56;;;12.45;44.20
62952;BME280;52163;52.212;-1.002;2023-04-20T11:10:16;101217.84;;;12.48;43.83
62952;BME280;52163;52.212;-1.002;2023-04-20T11:12:42;101211.02;;;12.53;43.72
62952;BME280;52163;52.212;-1.002;2023-04-20T11:15:08;101210.89;;;12.55;44.15
62952;BME280;52163;52.212;-1.002;2023-04-20T11:17:35;101215.42;;;12.60;44.70
62952;BME280;52163;52.212;-1.002;2023-04-20T11:20:06;101206.23;;;12.65;44.52
62952;BME280;52163;52.212;-1.002;2023-04-20T11:22:36;101211.08;;;12.70;44.35
62952;BME280;52163;52.212;-1.002;2023-04-20T11:25:08;101207.08;;;12.72;44.27
62952;BME280;52163;52.212;-1.002;2023-04-20T11:27:36;101201.98;;;12.74;44.20
62952;BME280;52163;52.212;-1.002;2023-04-20T11:30:03;101202.06;;;12.80;44.14
62952;BME280;52163;52.212;-1.002;2023-04-20T11:32:35;101197.55;;;12.87;44.17
62952;BME280;52163;52.212;-1.002;2023-04-20T11:35:05;101196.12;;;12.96;43.89
62952;BME280;52163;52.212;-1.002;2023-04-20T11:37:48;101192.10;;;13.01;43.71
62952;BME280;52163;52.212;-1.002;2023-04-20T11:40:16;101188.23;;;13.00;43.62
62952;BME280;52163;52.212;-1.002;2023-04-20T11:42:42;101190.70;;;13.00;43.25
62952;BME280;52163;52.212;-1.002;2023-04-20T11:45:08;101182.77;;;13.00;43.42
62952;BME280;52163;52.212;-1.002;2023-04-20T11:47:36;101176.30;;;13.01;43.00
62952;BME280;52163;52.212;-1.002;2023-04-20T11:50:02;101173.16;;;13.00;43.15
62952;BME280;52163;52.212;-1.002;2023-04-20T11:52:28;101172.51;;;13.02;43.03
62952;BME280;52163;52.212;-1.002;2023-04-20T11:54:54;101166.86;;;13.08;42.91
62952;BME280;52163;52.212;-1.002;2023-04-20T11:57:19;101164.36;;;13.11;42.57
62952;BME280;52163;52.212;-1.002;2023-04-20T11:59:47;101152.16;;;13.16;42.54
62952;BME280;52163;52.212;-1.002;2023-04-20T12:02:14;101144.25;;;13.21;42.51
62952;BME280;52163;52.212;-1.002;2023-04-20T12:04:40;101142.52;;;13.23;42.22
62952;BME280;52163;52.212;-1.002;2023-04-20T12:07:05;101133.36;;;13.25;41.67
62952;BME280;52163;52.212;-1.002;2023-04-20T12:09:31;101134.83;;;13.27;41.01
62952;BME280;52163;52.212;-1.002;2023-04-20T12:12:02;101128.83;;;13.30;40.80
62952;BME280;52163;52.212;-1.002;2023-04-20T12:14:28;101132.08;;;13.34;41.18
62952;BME280;52163;52.212;-1.002;2023-04-20T12:16:53;101124.17;;;13.39;41.20
62952;BME280;52163;52.212;-1.002;2023-04-20T12:19:19;101127.92;;;13.39;40.66
62952;BME280;52163;52.212;-1.002;2023-04-20T12:21:45;101120.45;;;13.39;40.56
62952;BME280;52163;52.212;-1.002;2023-04-20T12:24:12;101121.61;;;13.44;40.87
62952;BME280;52163;52.212;-1.002;2023-04-20T12:26:38;101112.50;;;13.50;40.78
62952;BME280;52163;52.212;-1.002;2023-04-20T12:29:03;101114.09;;;13.56;40.53
62952;BME280;52163;52.212;-1.002;2023-04-20T12:31:28;101117.55;;;13.60;40.02
62952;BME280;52163;52.212;-1.002;2023-04-20T12:33:54;101117.98;;;13.64;40.07
62952;BME280;52163;52.212;-1.002;2023-04-20T12:36:19;101114.34;;;13.66;39.43
62952;BME280;52163;52.212;-1.002;2023-04-20T12:38:45;101108.59;;;13.64;39.46
62952;BME280;52163;52.212;-1.002;2023-04-20T12:41:13;101109.30;;;13.67;39.44
62952;BME280;52163;52.212;-1.002;2023-04-20T12:43:39;101101.48;;;13.68;39.00
62952;BME280;52163;52.212;-1.002;2023-04-20T12:46:05;101103.52;;;13.69;38.57